METAR Data
IDs: Format: Raw Decoded Include TAF

Data at: 0654 UTC 03 Aug 2021

KCNO 030553Z AUTO 00000KT 9SM CLR 23/07 A2999 RMK AO2 SLP148 T02330072 10383 20233 50009
KCNO 030453Z AUTO 31003KT 10SM CLR 26/07 A2999 RMK AO2 SLP149 T02560067
KCNO 030353Z 26006KT 10SM CLR 27/04 A2998 RMK AO2 SLP146 LAST T02670044
KCNO 030253Z 24009KT 10SM CLR 29/04 A2996 RMK AO2 SLP139 T02940044 53009
KCNO 030153Z 24012KT 10SM CLR 33/06 A2994 RMK AO2 SLP134 T03330056
KCNO 030053Z 25013KT 10SM CLR 37/01 A2994 RMK AO2 SLP130 T03670011
KCNO 022353Z 25014KT 10SM CLR 38/07 A2993 RMK AO2 SLP129 T03780067 10411 20333 56013
KCNO 022253Z 26014KT 10SM CLR 39/09 A2994 RMK AO2 SLP132 T03940089
KCNO 022153Z 24014KT 10SM CLR 40/08 A2996 RMK AO2 SLP137 T04000083
KCNO 022053Z 27011KT 10SM CLR 40/04 A2997 RMK AO2 SLP142 FU S T04000044 56023
KCNO 021953Z VRB05KT 10SM CLR 39/09 A2999 RMK AO2 SLP147 T03940089
KCNO 021853Z 28004KT 10SM CLR 36/08 A3002 RMK AO2 SLP158 T03610083
KCNO 021753Z 21004KT 10SM CLR 33/08 A3004 RMK AO2 SLP166 T03280083 10328 20172 58012
KCNO 021653Z 00000KT 10SM CLR 30/09 A3006 RMK AO2 SLP172 T03000089
KCNO 021553Z 00000KT 10SM CLR 27/09 A3008 RMK AO2 SLP178 T02670089
KCNO 021453Z 00000KT 10SM CLR 23/10 A3008 RMK AO2 SLP179 T02330100 53015
KCNO 021353Z 00000KT 10SM CLR 19/11 A3006 RMK AO2 SLP174 T01940111
KCNO 021253Z AUTO 00000KT 10SM CLR 18/10 A3005 RMK AO2 SLP168 T01780100
KCNO 021153Z AUTO 00000KT 10SM CLR 18/11 A3004 RMK AO2 SLP164 T01830106 10233 20178 55001
KCNO 021053Z AUTO 36004KT 7SM CLR 18/11 A3003 RMK AO2 SLP161 T01830111
KCNO 020953Z AUTO 00000KT 10SM CLR 19/11 A3003 RMK AO2 SLP160 T01940106
KCNO 020853Z AUTO 35003KT 9SM CLR 20/11 A3004 RMK AO2 SLP164 T02000106 58003
KCNO 020753Z AUTO 18003KT 10SM CLR 22/11 A3004 RMK AO2 SLP166 T02170106 403780172
KCNO 020653Z AUTO 00000KT 10SM CLR 23/10 A3005 RMK AO2 SLP167 T02280100
KCNO 020553Z AUTO 34003KT 10SM CLR 22/11 A3005 RMK AO2 SLP167 T02220106 10350 20217 50013
KCNO 020453Z AUTO 00000KT 10SM CLR 24/10 A3005 RMK AO2 SLP168 T02440100
KCNO 020353Z 22006KT 10SM CLR 26/09 A3002 RMK AO2 SLP161 LAST T02610094
KCNO 020253Z 24008KT 10SM CLR 28/08 A3001 RMK AO2 SLP155 T02780083 53007
KCNO 020153Z 25012KT 10SM FEW020 31/06 A2999 RMK AO2 SLP150 T03110056
KCNO 020053Z 27013KT 10SM FEW020 FEW120 34/03 A2998 RMK AO2 SLP146 T03390033
KCNO 012353Z 24014KT 10SM FEW120 35/12 A2999 RMK AO2 SLP147 T03500122 10378 20322 56007
KCNO 012253Z 24013G20KT 10SM FEW120 36/13 A2999 RMK AO2 SLP148 T03610128
KCNO 012153Z 26011KT 10SM FEW120 38/12 A3000 RMK AO2 SLP152 T03780117
KCNO 012053Z 26010KT 220V290 10SM FEW120 38/08 A3001 RMK AO2 SLP155 T03780083 56018
KCNO 011953Z COR 22008KT 10SM FEW120 37/10 A3002 RMK AO2 SLP159 T03670100